Home > Products > Valid Products > TAF

000
FTUS44 KTSA 302331
TAFXNA
TAF
KXNA 302331Z 3100/3124 06004KT P6SM SCT150 BKN250
     FM311600 18005KT P6SM SCT120 BKN250=



000
FTUS44 KTSA 302331
TAFFYV
TAF
KFYV 302331Z 3100/3124 00000KT P6SM SCT150 BKN250
     FM311600 18006KT P6SM SCT120 BKN250=



000
FTUS44 KTSA 302331
TAFRVS
TAF
KRVS 302331Z 3100/3124 07009KT P6SM BKN140 BKN250
     FM310600 00000KT P6SM BKN150 BKN250
     FM311600 18005KT P6SM SCT100 BKN250=



000
FTUS44 KTSA 302331
TAFFSM
TAF
KFSM 302331Z 3100/3124 08004KT P6SM SCT120 BKN250
     FM311700 10008KT P6SM BKN250=



000
FTUS44 KTSA 302331
TAFTUL
TAF
KTUL 302331Z 3100/3124 07009KT P6SM BKN140 BKN250
     FM310600 08003KT P6SM BKN150 BKN250
     FM311600 18008KT P6SM SCT100 BKN250=



000
FTUS44 KTSA 302331
TAFMLC
TAF
KMLC 302331Z 3100/3124 06009KT P6SM BKN100 BKN250
     FM310600 09002KT P6SM SCT150 OVC250
     FM311500 13005KT P6SM SCT100 BKN250=



000
FTUS44 KTSA 302331
TAFTUL
TAF
KTUL 302331Z 3100/3124 07009KT P6SM BKN140 BKN250
     FM310600 08003KT P6SM BKN150 BKN250
     FM311600 18008KT P6SM SCT100 BKN250=



000
FTUS44 KTSA 302331
TAFFYV
TAF
KFYV 302331Z 3100/3124 00000KT P6SM SCT150 BKN250
     FM311600 18006KT P6SM SCT120 BKN250=



000
FTUS44 KTSA 302331
TAFFSM
TAF
KFSM 302331Z 3100/3124 08004KT P6SM SCT120 BKN250
     FM311700 10008KT P6SM BKN250=



000
FTUS44 KTSA 302331
TAFXNA
TAF
KXNA 302331Z 3100/3124 06004KT P6SM SCT150 BKN250
     FM311600 18005KT P6SM SCT120 BKN250=



000
FTUS44 KTSA 302331
TAFRVS
TAF
KRVS 302331Z 3100/3124 07009KT P6SM BKN140 BKN250
     FM310600 00000KT P6SM BKN150 BKN250
     FM311600 18005KT P6SM SCT100 BKN250=



000
FTUS44 KTSA 302331
TAFMLC
TAF
KMLC 302331Z 3100/3124 06009KT P6SM BKN100 BKN250
     FM310600 09002KT P6SM SCT150 OVC250
     FM311500 13005KT P6SM SCT100 BKN250=



000
FTUS44 KTSA 301934 AAB
TAFTUL
TAF AMD
KTUL 301934Z 3020/3118 36016G22KT P6SM FEW035 SCT090 BKN250
     FM302100 06007KT P6SM SCT050 BKN250
     FM310300 07004KT P6SM SCT100 BKN250=



000
FTUS44 KTSA 301934 AAB
TAFTUL
TAF AMD
KTUL 301934Z 3020/3118 36016G22KT P6SM FEW035 SCT090 BKN250
     FM302100 06007KT P6SM SCT050 BKN250
     FM310300 07004KT P6SM SCT100 BKN250=



000
FTUS44 KTSA 301806 AAA
TAFRVS
TAF AMD
KRVS 301806Z 3018/3118 33010KT P6SM VCTS SCT030CB SCT090 BKN250
     FM301900 06006KT P6SM SCT050 BKN250
     FM310300 04003KT P6SM SCT100 BKN250=



000
FTUS44 KTSA 301806 AAA
TAFTUL
TAF AMD
KTUL 301806Z 3018/3118 31013KT P6SM VCTS SCT030CB SCT090 BKN250
     FM301900 06007KT P6SM SCT050 BKN250
     FM310300 07004KT P6SM SCT100 BKN250=



000
FTUS44 KTSA 301806 AAA
TAFTUL
TAF AMD
KTUL 301806Z 3018/3118 31013KT P6SM VCTS SCT030CB SCT090 BKN250
     FM301900 06007KT P6SM SCT050 BKN250
     FM310300 07004KT P6SM SCT100 BKN250=



000
FTUS44 KTSA 301806 AAA
TAFRVS
TAF AMD
KRVS 301806Z 3018/3118 33010KT P6SM VCTS SCT030CB SCT090 BKN250
     FM301900 06006KT P6SM SCT050 BKN250
     FM310300 04003KT P6SM SCT100 BKN250=



000
FTUS44 KTSA 301720
TAFMLC
TAF
KMLC 301720Z 3018/3118 04006KT P6SM SCT050 BKN250
     FM310000 VRB03KT P6SM SCT050 BKN250=



000
FTUS44 KTSA 301720
TAFTUL
TAF
KTUL 301720Z 3018/3118 05007KT P6SM SCT090 BKN250
     FM301900 06007KT P6SM SCT050 BKN250
     FM310300 07004KT P6SM SCT100 BKN250=



000
FTUS44 KTSA 301720
TAFRVS
TAF
KRVS 301720Z 3018/3118 05006KT P6SM SCT090 BKN250
     FM301900 06006KT P6SM SCT050 BKN250
     FM310300 04003KT P6SM SCT100 BKN250=



000
FTUS44 KTSA 301720
TAFTUL
TAF
KTUL 301720Z 3018/3118 05007KT P6SM SCT090 BKN250
     FM301900 06007KT P6SM SCT050 BKN250
     FM310300 07004KT P6SM SCT100 BKN250=



000
FTUS44 KTSA 301720
TAFFYV
TAF
KFYV 301720Z 3018/3118 05006KT P6SM SCT050 BKN250
     FM310100 00000KT P6SM SCT100 BKN250=



000
FTUS44 KTSA 301720
TAFXNA
TAF
KXNA 301720Z 3018/3118 07006KT P6SM SCT050 BKN250
     FM310100 07003KT P6SM SCT100 BKN250=



000
FTUS44 KTSA 301720
TAFFSM
TAF
KFSM 301720Z 3018/3118 07006KT P6SM SCT080
     FM301900 06007KT P6SM SCT050 BKN250
     FM310300 06004KT P6SM SCT100 BKN250=



000
FTUS44 KTSA 301122
TAFFYV
TAF
KFYV 301122Z 3012/3112 VRB04KT P6SM SCT080
     FM301800 05006KT P6SM SCT050 BKN250 PROB30 3021/3101 4SM -TSRA
      BKN050CB
     FM310100 00000KT P6SM SCT100 BKN250=



000
FTUS44 KTSA 301122
TAFTUL
TAF
KTUL 301122Z 3012/3112 03004KT P6SM SCT090
     FM301500 05007KT P6SM SCT090 BKN250
     FM301900 06007KT P6SM SCT050 BKN250 PROB30 3021/3103 4SM -TSRA
      BKN050CB
     FM310300 07004KT P6SM SCT100 BKN250=



000
FTUS44 KTSA 301122
TAFMLC
TAF
KMLC 301122Z 3012/3112 03004KT P6SM SCT060
     FM301500 04006KT P6SM SCT050 BKN250
     FM310000 VRB03KT P6SM SCT050 BKN250 PROB30 3100/3106 4SM -TSRA
      BKN050CB=



000
FTUS44 KTSA 301122
TAFFSM
TAF
KFSM 301122Z 3012/3112 07006KT P6SM SCT080
     FM301900 06007KT P6SM SCT050 BKN250 PROB30 3021/3103 4SM -TSRA
      BKN050CB
     FM310300 06004KT P6SM SCT100 BKN250=



000
FTUS44 KTSA 301122
TAFRVS
TAF
KRVS 301122Z 3012/3112 03004KT P6SM SCT090
     FM301500 05006KT P6SM SCT090 BKN250
     FM301900 06006KT P6SM SCT050 BKN250 PROB30 3021/3103 4SM -TSRA
      BKN050CB
     FM310300 04003KT P6SM SCT100 BKN250=



000
FTUS44 KTSA 301122
TAFFSM
TAF
KFSM 301122Z 3012/3112 07006KT P6SM SCT080
     FM301900 06007KT P6SM SCT050 BKN250 PROB30 3021/3103 4SM -TSRA
      BKN050CB
     FM310300 06004KT P6SM SCT100 BKN250=



000
FTUS44 KTSA 301122
TAFXNA
TAF
KXNA 301122Z 3012/3112 04003KT P6SM SCT080 BKN250
     FM301500 07006KT P6SM SCT050 BKN250
     FM310100 07003KT P6SM SCT100 BKN250=



000
FTUS44 KTSA 301122
TAFRVS
TAF
KRVS 301122Z 3012/3112 03004KT P6SM SCT090
     FM301500 05006KT P6SM SCT090 BKN250
     FM301900 06006KT P6SM SCT050 BKN250 PROB30 3021/3103 4SM -TSRA
      BKN050CB
     FM310300 04003KT P6SM SCT100 BKN250=



000
FTUS44 KTSA 301122
TAFFYV
TAF
KFYV 301122Z 3012/3112 VRB04KT P6SM SCT080
     FM301800 05006KT P6SM SCT050 BKN250 PROB30 3021/3101 4SM -TSRA
      BKN050CB
     FM310100 00000KT P6SM SCT100 BKN250=



000
FTUS44 KTSA 301122
TAFTUL
TAF
KTUL 301122Z 3012/3112 03004KT P6SM SCT090
     FM301500 05007KT P6SM SCT090 BKN250
     FM301900 06007KT P6SM SCT050 BKN250 PROB30 3021/3103 4SM -TSRA
      BKN050CB
     FM310300 07004KT P6SM SCT100 BKN250=



000
FTUS44 KTSA 301122
TAFMLC
TAF
KMLC 301122Z 3012/3112 03004KT P6SM SCT060
     FM301500 04006KT P6SM SCT050 BKN250
     FM310000 VRB03KT P6SM SCT050 BKN250 PROB30 3100/3106 4SM -TSRA
      BKN050CB=



000
FTUS44 KTSA 301122
TAFXNA
TAF
KXNA 301122Z 3012/3112 04003KT P6SM SCT080 BKN250
     FM301500 07006KT P6SM SCT050 BKN250
     FM310100 07003KT P6SM SCT100 BKN250=



000
FTUS44 KTSA 300520
TAFFYV
TAF
KFYV 300520Z 3006/3106 06005KT P6SM SKC
     FM300900 00000KT 5SM BR SCT250
     FM301300 VRB03KT P6SM BKN250
     FM301900 07004KT P6SM SCT050 BKN250
     FM310300 00000KT P6SM BKN250=



000
FTUS44 KTSA 300520
TAFXNA
TAF
KXNA 300520Z 3006/3106 04005KT P6SM SKC
     FM300900 00000KT 5SM BR SCT250
     FM301300 VRB03KT P6SM BKN250
     FM301900 07004KT P6SM SCT050 BKN250
     FM310300 07003KT P6SM BKN250=



000
FTUS44 KTSA 300520
TAFTUL
TAF
KTUL 300520Z 3006/3106 06007KT P6SM SCT090
     FM301500 04007KT P6SM BKN250
     FM301900 06007KT P6SM SCT050 BKN250
     FM310300 06005KT P6SM BKN250=



000
FTUS44 KTSA 300520
TAFMLC
TAF
KMLC 300520Z 3006/3106 00000KT P6SM SKC
     FM301500 07005KT P6SM BKN250
     FM301900 07005KT P6SM SCT050 BKN250
     FM310300 07003KT P6SM BKN250=



000
FTUS44 KTSA 300520
TAFXNA
TAF
KXNA 300520Z 3006/3106 04005KT P6SM SKC
     FM300900 00000KT 5SM BR SCT250
     FM301300 VRB03KT P6SM BKN250
     FM301900 07004KT P6SM SCT050 BKN250
     FM310300 07003KT P6SM BKN250=



000
FTUS44 KTSA 300520
TAFTUL
TAF
KTUL 300520Z 3006/3106 06007KT P6SM SCT090
     FM301500 04007KT P6SM BKN250
     FM301900 06007KT P6SM SCT050 BKN250
     FM310300 06005KT P6SM BKN250=



000
FTUS44 KTSA 300520
TAFFYV
TAF
KFYV 300520Z 3006/3106 06005KT P6SM SKC
     FM300900 00000KT 5SM BR SCT250
     FM301300 VRB03KT P6SM BKN250
     FM301900 07004KT P6SM SCT050 BKN250
     FM310300 00000KT P6SM BKN250=



000
FTUS44 KTSA 300520
TAFMLC
TAF
KMLC 300520Z 3006/3106 00000KT P6SM SKC
     FM301500 07005KT P6SM BKN250
     FM301900 07005KT P6SM SCT050 BKN250
     FM310300 07003KT P6SM BKN250=



000
FTUS44 KTSA 300520
TAFFSM
TAF
KFSM 300520Z 3006/3106 00000KT P6SM SKC
     FM301500 08006KT P6SM BKN250
     FM301900 08006KT P6SM SCT050 BKN250
     FM310300 08005KT P6SM BKN250=



000
FTUS44 KTSA 300520
TAFRVS
TAF
KRVS 300520Z 3006/3106 05008KT P6SM SCT060
     FM301500 06005KT P6SM BKN250
     FM301900 06007KT P6SM SCT050 BKN250
     FM310300 06003KT P6SM BKN250=



000
FTUS44 KTSA 300520
TAFFSM
TAF
KFSM 300520Z 3006/3106 00000KT P6SM SKC
     FM301500 08006KT P6SM BKN250
     FM301900 08006KT P6SM SCT050 BKN250
     FM310300 08005KT P6SM BKN250=



000
FTUS44 KTSA 300520
TAFRVS
TAF
KRVS 300520Z 3006/3106 05008KT P6SM SCT060
     FM301500 06005KT P6SM BKN250
     FM301900 06007KT P6SM SCT050 BKN250
     FM310300 06003KT P6SM BKN250=



000
FTUS44 KTSA 300036 AAA
TAFTUL
TAF AMD
KTUL 300036Z 3001/3024 10003KT P6SM VCTS SCT060CB
     FM300300 04005KT P6SM SCT100 BKN250
     FM301500 04007KT P6SM BKN100
     FM301900 06007KT P6SM SCT060 SCT100=



000
FTUS44 KTSA 292328
TAFXNA
TAF
KXNA 292328Z 3000/3024 24003KT P6SM FEW060
     FM300200 00000KT P6SM SCT250
     FM300900 00000KT 5SM BR SCT250
     FM301300 VRB03KT P6SM SCT250
     FM301900 07004KT P6SM SCT050=



000
FTUS44 KTSA 292328
TAFRVS
TAF
KRVS 292328Z 3000/3024 21005KT P6SM SCT060
     FM300400 04003KT P6SM SCT100 BKN250
     FM301500 06005KT P6SM BKN100
     FM301900 06007KT P6SM SCT060 SCT100=



000
FTUS44 KTSA 292328
TAFMLC
TAF
KMLC 292328Z 3000/3024 VRB03KT P6SM SCT080
     FM300200 VRB03KT P6SM FEW250
     FM301500 02005KT P6SM SCT250
     FM301900 02005KT P6SM SCT060 SCT250=



000
FTUS44 KTSA 292328
TAFTUL
TAF
KTUL 292328Z 3000/3024 10004KT P6SM SCT060
     FM300400 04005KT P6SM SCT100 BKN250
     FM301500 04007KT P6SM BKN100
     FM301900 06007KT P6SM SCT060 SCT100=



000
FTUS44 KTSA 292328
TAFFYV
TAF
KFYV 292328Z 3000/3024 24005KT P6SM FEW060
     FM300200 00000KT P6SM SCT250
     FM300900 00000KT 5SM BR SCT250
     FM301300 VRB03KT P6SM SCT250
     FM301900 07004KT P6SM SCT050=



000
FTUS44 KTSA 292328
TAFFSM
TAF
KFSM 292328Z 3000/3024 05008KT P6SM SKC
     FM300200 VRB03KT P6SM FEW250
     FM301500 08006KT P6SM SCT250
     FM301900 08006KT P6SM SCT050=



000
FTUS44 KTSA 291720
TAFFYV
TAF
KFYV 291720Z 2918/3018 24005KT P6SM FEW250
     FM300100 00000KT P6SM SCT250
     FM300900 00000KT 5SM BR SCT250=



000
FTUS44 KTSA 291720
TAFMLC
TAF
KMLC 291720Z 2918/3018 21006KT P6SM FEW250
     FM300200 VRB03KT P6SM FEW250=



000
FTUS44 KTSA 291720
TAFXNA
TAF
KXNA 291720Z 2918/3018 24006KT P6SM FEW250
     FM300100 VRB03KT P6SM SCT250
     FM300900 03003KT 5SM BR SCT250=



000
FTUS44 KTSA 291720
TAFRVS
TAF
KRVS 291720Z 2918/3018 19005KT P6SM SCT250
     FM300000 15003KT P6SM SCT250
     FM300600 04003KT P6SM SCT100 BKN250=



000
FTUS44 KTSA 291720
TAFTUL
TAF
KTUL 291720Z 2918/3018 19007KT P6SM SCT250
     FM300000 15005KT P6SM SCT250
     FM300600 06005KT P6SM SCT100 BKN250=



000
FTUS44 KTSA 291720
TAFFSM
TAF
KFSM 291720Z 2918/3018 23005KT P6SM FEW250
     FM300200 VRB03KT P6SM SCT250=



000
FTUS44 KTSA 291720
TAFXNA
TAF
KXNA 291720Z 2918/3018 24006KT P6SM FEW250
     FM300100 VRB03KT P6SM SCT250
     FM300900 03003KT 5SM BR SCT250=



000
FTUS44 KTSA 291720
TAFTUL
TAF
KTUL 291720Z 2918/3018 19007KT P6SM SCT250
     FM300000 15005KT P6SM SCT250
     FM300600 06005KT P6SM SCT100 BKN250=



000
FTUS44 KTSA 291720
TAFFYV
TAF
KFYV 291720Z 2918/3018 24005KT P6SM FEW250
     FM300100 00000KT P6SM SCT250
     FM300900 00000KT 5SM BR SCT250=



000
FTUS44 KTSA 291720
TAFRVS
TAF
KRVS 291720Z 2918/3018 19005KT P6SM SCT250
     FM300000 15003KT P6SM SCT250
     FM300600 04003KT P6SM SCT100 BKN250=



000
FTUS44 KTSA 291720
TAFMLC
TAF
KMLC 291720Z 2918/3018 21006KT P6SM FEW250
     FM300200 VRB03KT P6SM FEW250=



000
FTUS44 KTSA 291720
TAFFSM
TAF
KFSM 291720Z 2918/3018 23005KT P6SM FEW250
     FM300200 VRB03KT P6SM SCT250=



000
FTUS44 KTSA 291353 AAA
TAFRVS
TAF AMD
KRVS 291353Z 2914/3012 00000KT P6SM SCT250
      TEMPO 2914/2916 03010G15KT BKN080
     FM291600 19005KT P6SM SCT250
     FM300000 15003KT P6SM SCT250
     FM300600 04003KT P6SM SCT100 BKN250=



000
FTUS44 KTSA 291352 AAA
TAFTUL
TAF AMD
KTUL 291352Z 2914/3012 19007KT P6SM SCT250
      TEMPO 2914/2916 03010G15KT BKN080
     FM300000 15005KT P6SM SCT250
     FM300600 06005KT P6SM SCT100 BKN250=



000
FTUS44 KTSA 291120
TAFXNA
TAF
KXNA 291120Z 2912/3012 00000KT P6SM SKC
     FM291400 24006KT P6SM FEW250
     FM300100 VRB03KT P6SM SCT250
     FM300900 03003KT 5SM BR SCT250=



000
FTUS44 KTSA 291120
TAFXNA
TAF
KXNA 291120Z 2912/3012 00000KT P6SM SKC
     FM291400 24006KT P6SM FEW250
     FM300100 VRB03KT P6SM SCT250
     FM300900 03003KT 5SM BR SCT250=



000
FTUS44 KTSA 291120
TAFRVS
TAF
KRVS 291120Z 2912/3012 00000KT P6SM SCT250
     FM291500 19005KT P6SM SCT250
     FM300000 15003KT P6SM SCT250
     FM300600 04003KT P6SM SCT100 BKN250=



000
FTUS44 KTSA 291120
TAFFSM
TAF
KFSM 291120Z 2912/3012 10003KT P6SM SKC
     FM291500 23005KT P6SM FEW250
     FM300200 VRB03KT P6SM SCT250=



000
FTUS44 KTSA 291120
TAFMLC
TAF
KMLC 291120Z 2912/3012 18003KT P6SM SKC
     FM291500 21006KT P6SM FEW250
     FM300200 VRB03KT P6SM FEW250=



000
FTUS44 KTSA 291120
TAFRVS
TAF
KRVS 291120Z 2912/3012 00000KT P6SM SCT250
     FM291500 19005KT P6SM SCT250
     FM300000 15003KT P6SM SCT250
     FM300600 04003KT P6SM SCT100 BKN250=



000
FTUS44 KTSA 291120
TAFFYV
TAF
KFYV 291120Z 2912/3012 00000KT 5SM BR SKC
     FM291400 24005KT P6SM FEW250
     FM300100 00000KT P6SM SCT250
     FM300900 00000KT 5SM BR SCT250=



000
FTUS44 KTSA 291120
TAFFSM
TAF
KFSM 291120Z 2912/3012 10003KT P6SM SKC
     FM291500 23005KT P6SM FEW250
     FM300200 VRB03KT P6SM SCT250=



000
FTUS44 KTSA 291120
TAFFYV
TAF
KFYV 291120Z 2912/3012 00000KT 5SM BR SKC
     FM291400 24005KT P6SM FEW250
     FM300100 00000KT P6SM SCT250
     FM300900 00000KT 5SM BR SCT250=



000
FTUS44 KTSA 291120
TAFTUL
TAF
KTUL 291120Z 2912/3012 19007KT P6SM SCT250
     FM300000 15005KT P6SM SCT250
     FM300600 06005KT P6SM SCT100 BKN250=



000
FTUS44 KTSA 291120
TAFTUL
TAF
KTUL 291120Z 2912/3012 19007KT P6SM SCT250
     FM300000 15005KT P6SM SCT250
     FM300600 06005KT P6SM SCT100 BKN250=



000
FTUS44 KTSA 291120
TAFMLC
TAF
KMLC 291120Z 2912/3012 18003KT P6SM SKC
     FM291500 21006KT P6SM FEW250
     FM300200 VRB03KT P6SM FEW250=



000
FTUS44 KTSA 290520
TAFTUL
TAF
KTUL 290520Z 2906/3006 22005KT P6SM SKC
     FM291500 18007KT P6SM SCT250
     FM300200 11005KT P6SM SCT250=



000
FTUS44 KTSA 290520
TAFRVS
TAF
KRVS 290520Z 2906/3006 00000KT P6SM SKC
     FM291500 19004KT P6SM SCT250
     FM300200 VRB03KT P6SM SCT250=



000
FTUS44 KTSA 290520
TAFFSM
TAF
KFSM 290520Z 2906/3006 00000KT P6SM SKC
     FM291600 27006KT P6SM FEW250
     FM300200 VRB03KT P6SM FEW250=



000
FTUS44 KTSA 290520
TAFMLC
TAF
KMLC 290520Z 2906/3006 17004KT P6SM SKC
     FM291500 21006KT P6SM FEW250
     FM300200 VRB03KT P6SM FEW250=



000
FTUS44 KTSA 290520
TAFXNA
TAF
KXNA 290520Z 2906/3006 17003KT P6SM SKC
     FM291500 24005KT P6SM FEW250
     FM300100 VRB03KT P6SM FEW250=



000
FTUS44 KTSA 290520
TAFFYV
TAF
KFYV 290520Z 2906/3006 00000KT P6SM SKC
     FM291500 24005KT P6SM FEW250
     FM300100 VRB03KT P6SM FEW250=



000
FTUS44 KTSA 282322
TAFFYV
TAF
KFYV 282322Z 2900/2924 19009KT P6SM SKC
     FM290100 19002KT P6SM SKC
     FM291500 24005KT P6SM FEW250=



000
FTUS44 KTSA 282322
TAFRVS
TAF
KRVS 282322Z 2900/2924 19013KT P6SM SKC
     FM290100 17003KT P6SM SKC
     FM291500 19004KT P6SM SCT250=



000
FTUS44 KTSA 282322
TAFMLC
TAF
KMLC 282322Z 2900/2924 VRB06KT P6SM SKC
     FM290100 14003KT P6SM SKC
     FM291500 21006KT P6SM FEW250=



000
FTUS44 KTSA 282322
TAFXNA
TAF
KXNA 282322Z 2900/2924 18009KT P6SM SKC
     FM290100 19003KT P6SM SKC
     FM291500 24005KT P6SM FEW250=



000
FTUS44 KTSA 282322
TAFTUL
TAF
KTUL 282322Z 2900/2924 17015G22KT P6SM SKC
     FM290100 17007KT P6SM SKC
     FM291500 22007KT P6SM SCT250=



000
FTUS44 KTSA 282322
TAFMLC
TAF
KMLC 282322Z 2900/2924 VRB06KT P6SM SKC
     FM290100 14003KT P6SM SKC
     FM291500 21006KT P6SM FEW250=



000
FTUS44 KTSA 282322
TAFFSM
TAF
KFSM 282322Z 2900/2924 VRB04KT P6SM FEW080
     FM290300 08003KT P6SM SKC
     FM291600 27006KT P6SM FEW250=



000
FTUS44 KTSA 282322
TAFFSM
TAF
KFSM 282322Z 2900/2924 VRB04KT P6SM FEW080
     FM290300 08003KT P6SM SKC
     FM291600 27006KT P6SM FEW250=



000
FTUS44 KTSA 282322
TAFTUL
TAF
KTUL 282322Z 2900/2924 17015G22KT P6SM SKC
     FM290100 17007KT P6SM SKC
     FM291500 22007KT P6SM SCT250=



000
FTUS44 KTSA 282322
TAFFYV
TAF
KFYV 282322Z 2900/2924 19009KT P6SM SKC
     FM290100 19002KT P6SM SKC
     FM291500 24005KT P6SM FEW250=



000
FTUS44 KTSA 282322
TAFRVS
TAF
KRVS 282322Z 2900/2924 19013KT P6SM SKC
     FM290100 17003KT P6SM SKC
     FM291500 19004KT P6SM SCT250=



000
FTUS44 KTSA 282322
TAFXNA
TAF
KXNA 282322Z 2900/2924 18009KT P6SM SKC
     FM290100 19003KT P6SM SKC
     FM291500 24005KT P6SM FEW250=



000
FTUS44 KTSA 281720
TAFXNA
TAF
KXNA 281720Z 2818/2918 20009KT P6SM SCT060
     FM290100 19003KT P6SM SKC
     FM291500 24005KT P6SM FEW250=



000
FTUS44 KTSA 281720
TAFRVS
TAF
KRVS 281720Z 2818/2918 19010G15KT P6SM FEW060
     FM290100 17003KT P6SM SKC
     FM291500 19004KT P6SM SCT250=



000
FTUS44 KTSA 281720
TAFFSM
TAF
KFSM 281720Z 2818/2918 19007KT P6SM SCT060
     FM290300 08003KT P6SM SKC
     FM291600 VRB03KT P6SM FEW250=



000
FTUS44 KTSA 281720
TAFMLC
TAF
KMLC 281720Z 2818/2918 20010KT P6SM SCT060
     FM290100 14003KT P6SM SKC
     FM291500 21006KT P6SM FEW250=



000
FTUS44 KTSA 281720
TAFFYV
TAF
KFYV 281720Z 2818/2918 20009KT P6SM SCT060
     FM290100 19002KT P6SM SKC
     FM291500 24005KT P6SM FEW250=



000
FTUS44 KTSA 281720
TAFTUL
TAF
KTUL 281720Z 2818/2918 19011G16KT P6SM FEW060
     FM290100 17007KT P6SM SKC
     FM291500 VRB04KT P6SM SCT250=



000
FTUS44 KTSA 281120
TAFFSM
TAF
KFSM 281120Z 2812/2912 06003KT P6SM SKC
     FM281600 19008KT P6SM SCT060
     FM290100 VRB03KT P6SM SKC=



000
FTUS44 KTSA 281120
TAFTUL
TAF
KTUL 281120Z 2812/2912 17008KT P6SM SKC
     FM281500 19013G20KT P6SM SCT060
     FM290100 17007KT P6SM SKC=



000
FTUS44 KTSA 281120
TAFFYV
TAF
KFYV 281120Z 2812/2912 17003KT P6SM SKC
     FM281500 20009KT P6SM SCT060
     FM290100 19002KT P6SM SKC=



000
FTUS44 KTSA 281120
TAFMLC
TAF
KMLC 281120Z 2812/2912 15004KT P6SM SCT100
     FM281500 20010KT P6SM SCT060
     FM290100 15003KT P6SM SKC=



000
FTUS44 KTSA 281120
TAFRVS
TAF
KRVS 281120Z 2812/2912 18003KT P6SM SKC
     FM281500 19011G18KT P6SM SCT060
     FM290100 18003KT P6SM SKC=



000
FTUS44 KTSA 281120
TAFXNA
TAF
KXNA 281120Z 2812/2912 20003KT P6SM SKC
     FM281500 20010KT P6SM SCT060
     FM290100 19003KT P6SM SKC=



000
FTUS44 KTSA 280520
TAFFYV
TAF
KFYV 280520Z 2806/2906 17003KT P6SM SKC
     FM281500 20006KT P6SM SKC
     FM290200 19002KT P6SM SKC=



000
FTUS44 KTSA 280520
TAFTUL
TAF
KTUL 280520Z 2806/2906 14006KT P6SM SKC
     FM281600 19011G18KT P6SM SKC
     FM290100 17007KT P6SM SKC=



000
FTUS44 KTSA 280520
TAFFSM
TAF
KFSM 280520Z 2806/2906 00000KT P6SM SKC
     FM281500 19008KT P6SM FEW050
     FM290100 VRB03KT P6SM SKC=



000
FTUS44 KTSA 280520
TAFXNA
TAF
KXNA 280520Z 2806/2906 00000KT P6SM SKC
     FM281500 20010KT P6SM SKC
     FM290100 VRB03KT P6SM SKC=



000
FTUS44 KTSA 280520
TAFMLC
TAF
KMLC 280520Z 2806/2906 15005KT P6SM SKC
     FM281600 20011KT P6SM SKC
     FM290100 15003KT P6SM SKC=



000
FTUS44 KTSA 280520
TAFRVS
TAF
KRVS 280520Z 2806/2906 17003KT P6SM SKC
     FM281600 19011G18KT P6SM SKC
     FM290100 VRB03KT P6SM SKC=



    US Dept of Commerce
    National Oceanic and Atmospheric Administration
    National Weather Service
    1325 East West Highway
    Silver Spring, MD 20910
    Page Author: NWS Internet Services Team
Disclaimer
Information Quality
Credits
Glossary
Privacy Policy
Freedom of Information Act (FOIA)
About Us
Career Opportunities